Estación municipal de Seva (Osona, P.N. del Montseny)

Consulta los datos en tiempo real de la estación municipal de Seva





Hora UTC 02:10
Temperatura 8.2 ºC
Suelo 15 cm 6.7 ºC
Humedad 95.6 %
Presión 1014.7 hPa
Pluja 0.0 mm
Velocidad viento 2.1 km/h
Dirección viento ESE
Radiación solar 0.1 W/m²

Webcam

Datos diarios 2026-05-08



Hora UTC (invierno +1h; verano +2h)
Temperatura (ºC) Humedad (%) Presión (hPa) Velocidad viento (km/h) Precipitación (mm) Radiación solar (W/m²)
Hora UTC Aire Suelo 15 cm Humedad Presión Vel. Dir. Vel. Max Dir. Intent. máx 5 min. Rad. Sol.
00:05 9.0 7.7 95.7 1015.4 4.0 E 4.0 E 0.0 0.1
00:10 9.0 7.7 95.8 1015.4 3.5 E 5.3 E 0.0 0.1
00:15 9.0 7.7 96.0 1015.3 3.3 E 4.9 E 0.0 0.1
00:20 9.1 7.8 96.1 1015.3 3.5 E 4.9 E 0.0 0.1
00:25 9.2 7.9 96.0 1015.3 4.1 E 5.6 ESE 0.0 0.1
00:30 9.2 7.9 95.8 1015.3 2.8 E 4.9 E 0.0 0.0
00:35 9.2 7.9 95.6 1015.3 0.9 E 2.8 ENE 0.0 0.1
00:40 9.2 7.8 95.5 1015.3 0.0 NE 1.1 NE 0.0 0.1
00:45 9.1 7.8 95.4 1015.3 0.5 NE 3.2 NNE 0.0 0.1
00:50 9.1 7.7 95.3 1015.3 1.0 WSW 2.5 W 0.0 0.1
00:55 9.1 7.7 95.2 1015.3 0.8 ESE 2.1 ESE 0.0 0.1
01:00 9.0 7.7 95.1 1015.3 2.5 E 3.2 E 0.0 0.1
01:05 8.9 7.7 95.0 1015.2 3.5 E 4.9 E 0.0 0.1
01:10 8.9 7.6 95.0 1015.1 3.7 E 5.6 E 0.0 0.1
01:15 8.9 7.6 95.2 1015.1 2.8 E 4.4 ESE 0.0 0.1
01:20 8.9 7.5 95.0 1015.1 1.7 ESE 3.2 E 0.0 0.1
01:25 8.9 7.4 94.9 1015.1 1.4 SE 2.1 SE 0.0 0.1
01:30 8.9 7.4 94.6 1015.0 0.1 SE 1.4 SE 0.0 0.1
01:35 8.8 7.3 94.6 1015.0 1.7 E 3.5 E 0.0 0.1
01:40 8.7 7.2 94.7 1014.9 2.5 ESE 3.2 ESE 0.0 0.1
01:45 8.7 7.1 95.0 1014.9 2.0 ESE 2.5 ESE 0.0 0.1
01:50 8.6 7.1 95.1 1014.9 2.5 ESE 3.2 ESE 0.0 0.1
01:55 8.5 7.1 95.2 1014.8 2.5 E 3.5 ENE 0.0 0.1
02:00 8.4 7.0 95.3 1014.8 3.5 E 3.9 ENE 0.0 0.1
02:05 8.3 6.9 95.4 1014.7 4.2 E 4.9 E 0.0 0.1
02:10 8.2 6.7 95.6 1014.7 2.1 ESE 3.9 E 0.0 0.1
Máxima 9.2 7.9 96.1 1015.4 4.2 E 5.6 E 0.0 0.1
Mínima 8.2 6.7 94.6 1014.7
Total 0.0